Time;durP1;ratioP1;P1;durP2;ratioP2;P2;SDS_P1;SDS_P2;PMS_P1;PMS_P2;Temp;Humidity;BMP_temperature;BMP_pressure;BME280_temperature;BME280_humidity;BME280_pressure;Samples;Min_cycle;Max_cycle;Signal;HPM_P1;HPM_P2
2022/02/01 00:00:39;;;;;;;2.60;2.40;;;6.40;99.90;;;;;;10511848;28;20224;-78
2022/02/01 00:05:48;;;;;;;2.83;2.63;;;6.40;99.90;;;;;;10494176;28;20196;-78
2022/02/01 00:10:58;;;;;;;2.97;2.67;;;6.50;99.90;;;;;;10513793;28;20218;-79
2022/02/01 00:16:39;;;;;;;5.43;2.70;;;6.50;99.90;;;;;;10500147;28;20626;-79
2022/02/01 00:37:54;;;;;;;2.90;2.43;;;6.50;99.90;;;;;;10503413;28;20227;-78
2022/02/01 00:43:00;;;;;;;2.30;2.10;;;6.50;99.90;;;;;;10535089;28;20228;-79
2022/02/01 00:48:04;;;;;;;2.60;2.20;;;6.50;99.90;;;;;;10538810;28;20220;-78
2022/02/01 00:53:06;;;;;;;2.40;1.80;;;6.50;99.90;;;;;;10539670;28;20223;-78
2022/02/01 00:58:10;;;;;;;2.57;2.07;;;6.50;99.90;;;;;;10536263;28;20766;-77
2022/02/01 01:03:14;;;;;;;2.87;1.80;;;6.50;99.90;;;;;;10536629;28;20196;-77
2022/02/01 01:08:16;;;;;;;3.00;2.03;;;6.40;99.90;;;;;;10531311;28;20248;-77
2022/02/01 01:13:40;;;;;;;5.13;2.50;;;6.30;99.90;;;;;;10518300;28;20720;-77
2022/02/01 01:45:38;;;;;;;6.87;3.20;;;6.10;99.90;;;;;;10518635;28;20703;-77
2022/02/01 01:56:02;;;;;;;5.20;3.10;;;6.20;99.90;;;;;;10538533;28;20215;-78
2022/02/01 02:01:14;;;;;;;4.23;3.00;;;6.20;99.90;;;;;;10535749;28;20238;-79
2022/02/01 02:06:19;;;;;;;7.70;2.73;;;6.20;99.90;;;;;;10541518;28;20198;-79
2022/02/01 02:11:27;;;;;;;6.27;2.30;;;6.30;99.90;;;;;;10543139;28;20192;-78
2022/02/01 02:16:29;;;;;;;4.10;2.90;;;6.30;99.90;;;;;;10542735;28;20227;-79
2022/02/01 02:21:33;;;;;;;4.87;2.77;;;6.40;99.90;;;;;;10546720;28;20686;-79
2022/02/01 02:26:36;;;;;;;7.63;2.60;;;6.40;99.90;;;;;;10536221;28;20576;-79
2022/02/01 02:31:39;;;;;;;5.27;3.23;;;6.40;99.90;;;;;;10540120;28;20245;-78
2022/02/01 02:36:47;;;;;;;6.77;3.50;;;6.40;99.90;;;;;;10536061;28;20306;-80
2022/02/01 02:41:53;;;;;;;3.80;2.87;;;6.30;99.90;;;;;;10520183;28;20294;-78
2022/02/01 02:46:55;;;;;;;7.27;3.33;;;6.20;99.90;;;;;;10535555;28;20211;-77
2022/02/01 02:51:59;;;;;;;6.77;3.20;;;6.20;99.90;;;;;;10535541;28;20237;-78
2022/02/01 02:57:03;;;;;;;8.73;3.23;;;6.20;99.90;;;;;;10536548;28;20219;-79
2022/02/01 03:02:07;;;;;;;7.40;3.50;;;6.20;99.90;;;;;;10542921;28;20191;-79
2022/02/01 03:07:10;;;;;;;7.70;3.77;;;6.20;99.90;;;;;;10541786;28;20220;-79
2022/02/01 03:12:18;;;;;;;6.93;3.77;;;6.20;99.90;;;;;;10543542;28;20200;-79
2022/02/01 03:17:28;;;;;;;7.23;3.10;;;6.20;99.90;;;;;;10520429;28;20223;-79
2022/02/01 03:22:32;;;;;;;8.87;3.67;;;6.10;99.90;;;;;;10541207;28;20196;-77
2022/02/01 03:27:34;;;;;;;9.47;3.50;;;6.20;99.90;;;;;;10544875;28;20728;-78
2022/02/01 03:32:36;;;;;;;9.50;4.40;;;6.20;99.90;;;;;;10552894;28;20604;-79
2022/02/01 03:37:40;;;;;;;8.20;3.83;;;6.20;99.90;;;;;;10553263;28;20310;-79
2022/02/01 03:42:42;;;;;;;6.20;3.50;;;6.20;99.90;;;;;;10532446;28;20227;-79
2022/02/01 03:47:44;;;;;;;10.43;4.13;;;6.20;99.90;;;;;;10531024;28;20219;-78
2022/02/01 03:52:47;;;;;;;12.27;4.27;;;6.10;99.90;;;;;;10555940;28;20196;-80
2022/02/01 03:57:50;;;;;;;9.37;3.30;;;6.10;99.90;;;;;;10551942;28;20342;-77
2022/02/01 04:02:52;;;;;;;8.03;3.90;;;6.20;99.90;;;;;;10530864;28;20200;-80
2022/02/01 04:07:55;;;;;;;8.30;3.50;;;6.20;99.90;;;;;;10541570;28;20640;-77
2022/02/01 04:12:58;;;;;;;10.03;4.10;;;6.20;99.90;;;;;;10535271;28;20235;-77
2022/02/01 04:18:00;;;;;;;9.90;3.33;;;6.20;99.90;;;;;;10533761;28;20220;-76
2022/02/01 04:23:04;;;;;;;9.57;3.90;;;6.30;99.90;;;;;;10534898;28;20201;-77
2022/02/01 04:28:06;;;;;;;9.40;3.20;;;6.30;99.90;;;;;;10524386;28;20226;-77
2022/02/01 04:33:08;;;;;;;10.60;3.77;;;6.30;99.90;;;;;;10528482;28;20212;-78
2022/02/01 04:38:11;;;;;;;10.30;3.40;;;6.30;99.90;;;;;;10538594;28;20226;-80
2022/02/01 04:43:13;;;;;;;10.63;3.43;;;6.30;99.90;;;;;;10544786;28;20204;-79
2022/02/01 04:48:15;;;;;;;11.60;4.87;;;6.30;99.90;;;;;;10541803;28;20223;-78
2022/02/01 04:53:19;;;;;;;8.23;3.77;;;6.20;99.90;;;;;;10533325;28;20199;-79
2022/02/01 04:58:22;;;;;;;8.63;3.53;;;6.20;99.90;;;;;;10547613;28;20224;-78
2022/02/01 05:03:24;;;;;;;9.13;3.37;;;6.20;99.90;;;;;;10529241;28;20204;-77
2022/02/01 05:08:27;;;;;;;8.67;3.73;;;6.20;99.90;;;;;;10522421;28;20295;-80
2022/02/01 05:13:59;;;;;;;7.53;3.67;;;6.20;99.90;;;;;;10531301;28;20201;-78
2022/02/01 05:19:05;;;;;;;13.97;3.73;;;6.10;99.90;;;;;;10534554;28;20683;-77
2022/02/01 05:24:12;;;;;;;8.03;3.50;;;6.10;99.90;;;;;;10522246;28;20235;-78
2022/02/01 05:29:14;;;;;;;11.53;4.43;;;6.10;99.90;;;;;;10522992;28;20224;-79
2022/02/01 05:34:16;;;;;;;12.37;4.43;;;6.10;99.90;;;;;;10520236;28;20564;-78
2022/02/01 05:39:22;;;;;;;6.77;3.60;;;6.10;99.90;;;;;;10530963;28;20223;-78
2022/02/01 05:44:24;;;;;;;10.27;2.93;;;6.10;99.90;;;;;;10532732;28;20196;-78
2022/02/01 05:49:26;;;;;;;10.43;3.77;;;6.10;99.90;;;;;;10542730;28;20223;-79
2022/02/01 05:54:30;;;;;;;12.83;3.43;;;6.10;99.90;;;;;;10540807;28;20207;-77
2022/02/01 05:59:32;;;;;;;6.83;3.07;;;6.10;99.90;;;;;;10544476;28;20695;-78
2022/02/01 06:04:34;;;;;;;9.73;4.00;;;6.10;99.90;;;;;;10549564;28;20200;-77
2022/02/01 06:09:38;;;;;;;12.87;4.00;;;6.00;99.90;;;;;;10547953;28;20238;-78
2022/02/01 06:14:40;;;;;;;10.00;3.93;;;6.00;99.90;;;;;;10531126;28;20202;-80
2022/02/01 06:19:42;;;;;;;7.17;3.30;;;6.00;99.90;;;;;;10530977;28;20212;-79
2022/02/01 06:24:46;;;;;;;8.20;3.80;;;6.00;99.90;;;;;;10525460;28;20204;-79
2022/02/01 06:29:48;;;;;;;11.23;3.40;;;6.00;99.90;;;;;;10524977;28;20223;-77
2022/02/01 06:34:50;;;;;;;12.30;3.77;;;6.00;99.90;;;;;;10534209;28;20196;-79
2022/02/01 06:39:53;;;;;;;8.03;3.00;;;6.00;99.90;;;;;;10540645;28;20288;-80
2022/02/01 06:44:57;;;;;;;5.07;3.20;;;6.00;99.90;;;;;;10535305;28;20194;-79
2022/02/01 06:49:59;;;;;;;11.23;3.90;;;6.00;99.90;;;;;;10543817;28;20212;-79
2022/02/01 06:55:03;;;;;;;7.37;3.57;;;6.00;99.90;;;;;;10540210;28;20208;-79
2022/02/01 07:00:08;;;;;;;11.13;3.93;;;6.00;99.90;;;;;;10535784;28;20255;-79
2022/02/01 07:05:10;;;;;;;9.30;3.70;;;6.00;99.90;;;;;;10544513;28;20200;-79
2022/02/01 07:10:14;;;;;;;8.37;3.40;;;5.90;99.90;;;;;;10545146;28;20225;-79
2022/02/01 07:15:16;;;;;;;8.93;3.77;;;5.90;99.90;;;;;;10533909;28;20637;-78
2022/02/01 07:20:20;;;;;;;8.43;3.67;;;5.90;99.90;;;;;;10542034;28;20220;-79
2022/02/01 07:25:28;;;;;;;10.40;3.60;;;5.90;99.90;;;;;;10540391;28;20247;-79
2022/02/01 07:30:31;;;;;;;9.17;3.23;;;5.90;99.90;;;;;;10554444;28;20219;-78
2022/02/01 07:35:34;;;;;;;13.23;3.60;;;5.90;99.90;;;;;;10542816;28;20223;-79
2022/02/01 07:40:37;;;;;;;9.60;3.53;;;5.90;99.90;;;;;;10545470;28;20295;-79
2022/02/01 07:45:41;;;;;;;7.10;3.57;;;5.90;99.90;;;;;;10537533;28;20218;-79
2022/02/01 07:50:43;;;;;;;8.80;3.47;;;6.00;99.90;;;;;;10526565;28;20216;-79
2022/02/01 07:55:46;;;;;;;6.50;3.17;;;5.90;99.90;;;;;;10531001;28;20220;-78
2022/02/01 08:00:49;;;;;;;12.77;3.30;;;6.00;99.90;;;;;;10544143;28;20259;-78
2022/02/01 08:05:51;;;;;;;8.80;3.00;;;6.10;99.90;;;;;;10543637;28;20230;-77
2022/02/01 08:10:56;;;;;;;9.33;3.63;;;6.10;99.90;;;;;;10525651;28;20252;-78
2022/02/01 08:21:23;;;;;;;9.20;3.40;;;6.10;99.90;;;;;;10532035;28;20672;-79
2022/02/01 08:26:27;;;;;;;11.20;3.50;;;6.10;99.90;;;;;;10500012;28;20224;-76
2022/02/01 08:31:30;;;;;;;5.13;2.80;;;6.10;99.90;;;;;;10528983;28;20239;-77
2022/02/01 08:36:32;;;;;;;6.50;2.73;;;6.20;99.90;;;;;;10506683;28;20248;-77
2022/02/01 08:41:36;;;;;;;7.97;2.73;;;6.20;99.90;;;;;;10507081;28;20761;-76
2022/02/01 08:46:38;;;;;;;9.13;3.20;;;6.20;99.90;;;;;;10533351;28;20213;-79
2022/02/01 08:51:43;;;;;;;6.30;3.60;;;6.40;99.90;;;;;;10537565;28;20198;-77
2022/02/01 09:02:10;;;;;;;10.40;4.03;;;6.60;99.90;;;;;;10520099;28;20850;-78
2022/02/01 09:07:12;;;;;;;5.53;3.00;;;6.80;99.90;;;;;;10515404;28;20219;-79
2022/02/01 09:12:17;;;;;;;4.97;2.83;;;6.90;99.90;;;;;;10501957;28;20204;-76
2022/02/01 09:17:21;;;;;;;6.40;3.47;;;6.90;99.90;;;;;;10504398;28;20239;-77
2022/02/01 09:22:24;;;;;;;6.67;3.40;;;7.00;99.90;;;;;;10510291;28;20221;-79
2022/02/01 09:27:27;;;;;;;13.17;3.47;;;7.10;99.90;;;;;;10509699;28;20238;-77
2022/02/01 09:32:29;;;;;;;6.70;3.20;;;7.20;99.90;;;;;;10512780;28;20203;-79
2022/02/01 09:37:31;;;;;;;5.63;2.63;;;7.20;99.90;;;;;;10508831;28;20310;-81
2022/02/01 09:42:39;;;;;;;6.80;2.40;;;7.20;99.90;;;;;;10514916;28;20227;-77
2022/02/01 09:47:44;;;;;;;7.77;2.87;;;7.20;99.90;;;;;;10506192;28;20216;-79
2022/02/01 09:52:47;;;;;;;4.63;2.80;;;7.30;99.90;;;;;;10511011;28;20860;-79
2022/02/01 09:57:53;;;;;;;7.47;2.97;;;7.30;99.90;;;;;;10501121;28;20220;-77
2022/02/01 10:02:58;;;;;;;5.53;2.40;;;7.30;99.90;;;;;;10505929;28;20665;-77
2022/02/01 10:08:01;;;;;;;6.93;2.80;;;7.30;99.90;;;;;;10508104;28;20243;-78
2022/02/01 10:13:18;;;;;;;8.40;2.83;;;7.40;99.90;;;;;;10506697;28;20579;-78
2022/02/01 10:18:34;;;;;;;7.30;2.77;;;7.40;99.90;;;;;;10512366;28;20231;-78
2022/02/01 10:23:38;;;;;;;6.10;2.80;;;7.30;99.90;;;;;;10515119;28;20198;-77
2022/02/01 10:29:02;;;;;;;4.50;2.37;;;7.20;99.90;;;;;;10510018;28;20704;-80
2022/02/01 10:34:29;;;;;;;2.70;2.27;;;7.20;99.90;;;;;;10514602;28;20218;-79
2022/02/01 10:39:33;;;;;;;3.73;2.20;;;7.20;99.90;;;;;;10518704;28;20224;-79
2022/02/01 10:44:42;;;;;;;6.53;2.30;;;7.30;99.90;;;;;;10528248;28;20218;-77
2022/02/01 10:49:45;;;;;;;5.40;3.00;;;7.40;99.90;;;;;;10553034;28;20305;-78
2022/02/01 10:54:47;;;;;;;5.80;2.57;;;7.50;99.90;;;;;;10509678;28;20191;-77
2022/02/01 10:59:50;;;;;;;5.17;2.23;;;7.40;99.90;;;;;;10503544;28;20661;-79
2022/02/01 11:04:54;;;;;;;5.70;2.53;;;7.30;99.90;;;;;;10535651;28;20529;-78
2022/02/01 11:09:56;;;;;;;4.60;2.67;;;7.40;99.90;;;;;;10526292;28;20222;-81
2022/02/01 11:14:59;;;;;;;8.80;2.53;;;7.40;99.80;;;;;;10531333;28;20200;-80
2022/02/01 11:20:01;;;;;;;5.47;2.83;;;7.50;99.90;;;;;;10532126;28;20607;-79
2022/02/01 11:25:16;;;;;;;8.00;2.47;;;7.60;99.80;;;;;;10535342;28;20279;-80
2022/02/01 11:30:19;;;;;;;9.70;3.00;;;7.60;99.40;;;;;;10543104;28;20593;-79
2022/02/01 11:35:24;;;;;;;10.33;2.53;;;7.60;98.70;;;;;;10531764;28;20200;-79
2022/02/01 11:40:33;;;;;;;5.33;2.70;;;7.60;99.20;;;;;;10536566;28;20224;-80
2022/02/01 11:45:38;;;;;;;7.63;2.63;;;7.60;98.30;;;;;;10524254;28;20208;-80
2022/02/01 11:50:46;;;;;;;5.80;2.50;;;7.60;99.10;;;;;;10539623;28;20223;-80
2022/02/01 11:55:49;;;;;;;6.27;2.70;;;7.60;99.50;;;;;;10528172;28;20206;-80
2022/02/01 12:00:53;;;;;;;6.57;2.43;;;7.60;98.60;;;;;;10539287;28;20251;-80
2022/02/01 12:05:59;;;;;;;6.77;2.70;;;7.50;99.20;;;;;;10534885;28;20583;-79
2022/02/01 12:11:04;;;;;;;4.90;2.57;;;7.30;99.30;;;;;;10544329;28;20695;-80
2022/02/01 12:16:11;;;;;;;6.47;2.43;;;7.30;99.90;;;;;;10543142;28;20226;-80
2022/02/01 12:21:22;;;;;;;3.93;2.47;;;7.10;99.30;;;;;;10518254;28;20196;-78
2022/02/01 12:26:27;;;;;;;4.83;2.30;;;7.10;99.30;;;;;;10528553;28;20223;-77
2022/02/01 12:31:33;;;;;;;3.07;2.50;;;7.00;99.90;;;;;;10523869;28;20569;-79
2022/02/01 12:36:38;;;;;;;4.50;2.13;;;6.90;99.60;;;;;;10513654;28;20680;-78
2022/02/01 12:41:44;;;;;;;9.03;2.60;;;6.70;99.40;;;;;;10494911;28;20684;-77
2022/02/01 12:46:51;;;;;;;2.37;1.67;;;6.70;99.90;;;;;;10508538;28;20220;-78
2022/02/01 12:51:54;;;;;;;3.33;2.00;;;6.80;99.10;;;;;;10537036;28;20275;-79
2022/02/01 12:57:06;;;;;;;3.53;2.00;;;6.60;99.00;;;;;;10497980;28;20714;-77
2022/02/01 13:02:11;;;;;;;5.03;2.30;;;6.60;99.90;;;;;;10522649;28;20656;-78
2022/02/01 13:07:20;;;;;;;4.23;1.70;;;6.60;99.50;;;;;;10519910;28;20213;-78
2022/02/01 13:17:52;;;;;;;3.50;2.20;;;6.60;99.90;;;;;;10539162;28;20284;-79
2022/02/01 13:22:58;;;;;;;3.17;1.90;;;6.60;99.60;;;;;;10532934;28;20278;-80
2022/02/01 13:28:02;;;;;;;1.80;1.70;;;6.70;99.60;;;;;;10528791;28;20216;-79
2022/02/01 13:33:11;;;;;;;3.63;1.80;;;6.80;99.20;;;;;;10504032;28;20224;-78
2022/02/01 13:38:13;;;;;;;3.47;1.80;;;6.80;99.80;;;;;;10522337;28;20216;-80
2022/02/01 13:43:17;;;;;;;2.27;2.07;;;6.80;99.90;;;;;;10518773;28;20212;-79
2022/02/01 13:48:25;;;;;;;2.73;1.70;;;6.90;99.40;;;;;;10539550;28;20236;-80
2022/02/01 13:53:28;;;;;;;2.20;1.97;;;6.90;99.00;;;;;;10539432;28;20204;-80
2022/02/01 13:58:32;;;;;;;3.50;2.30;;;6.70;99.20;;;;;;10530853;28;20224;-78
2022/02/01 14:03:40;;;;;;;4.63;2.80;;;6.70;99.10;;;;;;10508796;28;20212;-78
2022/02/01 14:08:51;;;;;;;5.00;2.20;;;6.50;99.50;;;;;;10532842;28;20303;-79
2022/02/01 14:35:19;;;;;;;2.87;2.20;;;6.20;99.90;;;;;;10532990;28;20196;-78
2022/02/01 14:45:41;;;;;;;2.53;2.20;;;6.10;99.90;;;;;;10517880;28;20192;-79
2022/02/01 14:50:45;;;;;;;3.30;2.77;;;6.10;99.90;;;;;;10537640;28;20705;-80
2022/02/01 14:55:55;;;;;;;5.10;2.20;;;5.90;99.90;;;;;;10546286;28;20208;-79
2022/02/01 15:11:53;;;;;;;3.17;2.80;;;5.30;99.90;;;;;;10514970;28;20209;-79
2022/02/01 15:16:55;;;;;;;2.70;2.40;;;5.10;99.90;;;;;;10538183;28;20788;-79
2022/02/01 15:21:59;;;;;;;3.93;2.23;;;5.00;99.90;;;;;;10542729;28;20238;-79
2022/02/01 15:27:05;;;;;;;4.83;2.60;;;4.90;99.90;;;;;;10538811;28;20216;-79
2022/02/01 15:32:08;;;;;;;3.90;2.73;;;4.90;99.90;;;;;;10522705;28;20199;-78
2022/02/01 15:37:12;;;;;;;2.40;2.20;;;4.80;99.90;;;;;;10549274;28;20767;-78
2022/02/01 15:58:17;;;;;;;2.47;2.27;;;4.90;99.90;;;;;;10529117;28;20224;-79
2022/02/01 16:03:22;;;;;;;4.40;2.80;;;5.00;99.90;;;;;;10532960;28;20225;-80
2022/02/01 16:08:31;;;;;;;1.60;1.50;;;5.10;99.90;;;;;;10534969;28;20781;-80
2022/02/01 16:13:38;;;;;;;2.90;2.00;;;5.10;99.90;;;;;;10543473;28;20193;-79
2022/02/01 16:18:42;;;;;;;2.43;2.00;;;5.00;99.90;;;;;;10542555;28;20223;-77
2022/02/01 16:23:46;;;;;;;4.10;2.63;;;5.10;99.90;;;;;;10522884;28;20623;-79
2022/02/01 16:28:48;;;;;;;4.23;3.47;;;5.20;99.90;;;;;;10541950;28;20857;-80
2022/02/01 16:33:52;;;;;;;4.57;2.93;;;5.20;99.90;;;;;;10550006;28;20200;-76
2022/02/01 16:38:55;;;;;;;2.27;1.97;;;5.20;99.90;;;;;;10540551;28;20239;-78
2022/02/01 16:43:59;;;;;;;4.87;4.27;;;5.30;99.90;;;;;;10517649;28;20196;-77
2022/02/01 16:49:02;;;;;;;1.87;1.70;;;5.50;99.90;;;;;;10509806;28;20224;-79
2022/02/01 16:54:09;;;;;;;2.83;1.80;;;5.50;99.90;;;;;;10503761;28;20246;-80
2022/02/01 16:59:18;;;;;;;2.03;1.83;;;5.60;99.90;;;;;;10538742;28;20687;-80
2022/02/01 17:04:20;;;;;;;1.83;1.73;;;5.70;99.90;;;;;;10536831;28;20668;-77
2022/02/01 17:09:27;;;;;;;2.00;1.77;;;5.90;99.90;;;;;;10525873;28;20303;-78
2022/02/01 17:14:56;;;;;;;1.60;1.50;;;5.90;99.90;;;;;;10506347;28;20205;-78
2022/02/01 17:25:21;;;;;;;1.60;1.50;;;6.10;99.90;;;;;;10524075;28;20235;-79
2022/02/01 17:30:23;;;;;;;1.70;1.60;;;6.10;99.90;;;;;;10532929;28;20220;-79
2022/02/01 17:35:25;;;;;;;1.70;1.60;;;6.10;99.90;;;;;;10513953;28;20228;-78
2022/02/01 17:40:29;;;;;;;1.80;1.70;;;6.20;99.90;;;;;;10521411;28;20230;-78
2022/02/01 17:45:31;;;;;;;1.70;1.60;;;6.30;99.90;;;;;;10518808;28;20200;-77
2022/02/01 17:50:45;;;;;;;1.93;1.70;;;6.30;99.90;;;;;;10530367;28;20212;-80
2022/02/01 17:55:49;;;;;;;2.10;1.27;;;6.40;99.90;;;;;;10539912;28;20204;-78
2022/02/01 18:00:51;;;;;;;1.60;1.50;;;6.50;99.90;;;;;;10509558;28;20223;-79
2022/02/01 18:05:53;;;;;;;1.57;1.47;;;6.50;99.90;;;;;;10538222;28;20733;-79
2022/02/01 18:10:59;;;;;;;1.70;1.60;;;6.60;99.90;;;;;;10513235;28;20224;-77
2022/02/01 18:16:01;;;;;;;2.20;1.60;;;6.70;99.90;;;;;;10512225;28;20197;-78
2022/02/01 18:21:05;;;;;;;1.43;1.33;;;6.70;99.90;;;;;;10538901;28;20236;-79
2022/02/01 18:26:10;;;;;;;1.00;1.00;;;6.80;99.90;;;;;;10520955;28;20720;-80
2022/02/01 18:31:12;;;;;;;1.73;1.40;;;6.80;99.90;;;;;;10547254;28;20220;-79
2022/02/01 18:36:18;;;;;;;2.70;1.40;;;6.90;99.90;;;;;;10537346;28;20613;-79
2022/02/01 18:41:25;;;;;;;1.33;1.23;;;6.90;99.90;;;;;;10534577;28;20770;-78
2022/02/01 18:46:28;;;;;;;1.40;1.30;;;6.90;99.90;;;;;;10532859;28;20223;-78
2022/02/01 18:51:44;;;;;;;1.23;1.23;;;6.90;99.90;;;;;;10527560;28;20202;-78
2022/02/01 18:56:57;;;;;;;1.20;1.20;;;6.80;99.90;;;;;;10543958;28;20282;-77
2022/02/01 19:07:30;;;;;;;1.40;1.40;;;6.90;99.90;;;;;;10534541;28;20204;-79
2022/02/01 19:12:36;;;;;;;1.30;1.20;;;6.90;99.90;;;;;;10554025;28;20228;-80
2022/02/01 19:17:39;;;;;;;1.20;1.10;;;6.90;99.90;;;;;;10547612;28;20621;-78
2022/02/01 19:22:42;;;;;;;0.87;0.87;;;6.90;99.90;;;;;;10531025;28;20699;-77
2022/02/01 19:27:46;;;;;;;1.17;1.17;;;6.90;99.90;;;;;;10494399;28;20220;-78
2022/02/01 19:32:51;;;;;;;1.20;1.20;;;6.80;99.90;;;;;;10510956;28;20253;-79
2022/02/01 19:37:53;;;;;;;1.63;1.60;;;6.80;99.90;;;;;;10532789;28;20223;-79
2022/02/01 19:43:02;;;;;;;0.93;0.93;;;6.80;99.90;;;;;;10552013;28;20249;-79
2022/02/01 19:48:04;;;;;;;1.40;1.37;;;6.70;99.90;;;;;;10537231;28;20216;-77
2022/02/01 19:53:09;;;;;;;1.40;1.40;;;6.70;99.90;;;;;;10535461;28;20683;-78
2022/02/01 19:58:14;;;;;;;1.57;1.57;;;6.70;99.90;;;;;;10527136;28;20599;-78
2022/02/01 20:03:18;;;;;;;1.70;1.60;;;6.70;99.90;;;;;;10510569;28;20197;-79
2022/02/01 20:08:27;;;;;;;1.63;1.53;;;6.70;99.90;;;;;;10518297;28;20704;-77
2022/02/01 20:13:30;;;;;;;1.83;1.73;;;6.70;99.90;;;;;;10504856;28;20223;-77
2022/02/01 20:18:32;;;;;;;1.97;1.87;;;6.70;99.90;;;;;;10535145;28;20255;-78
2022/02/01 20:23:35;;;;;;;1.80;1.70;;;6.70;99.90;;;;;;10523584;28;20226;-78
2022/02/01 20:28:39;;;;;;;1.90;1.80;;;6.70;99.90;;;;;;10531944;28;20562;-79
2022/02/01 20:33:43;;;;;;;2.10;2.00;;;6.70;99.90;;;;;;10532187;28;20199;-79
2022/02/01 20:38:49;;;;;;;2.00;1.90;;;6.80;99.90;;;;;;10545370;28;20832;-78
2022/02/01 20:43:52;;;;;;;2.00;1.90;;;6.80;99.90;;;;;;10533816;28;20202;-78
2022/02/01 20:48:54;;;;;;;2.00;1.90;;;6.90;99.90;;;;;;10534946;28;20263;-78
2022/02/01 20:53:57;;;;;;;2.10;1.90;;;7.00;99.90;;;;;;10490638;28;20220;-78
2022/02/01 20:59:00;;;;;;;2.13;2.03;;;6.90;99.90;;;;;;10498306;28;20221;-78
2022/02/01 21:04:02;;;;;;;1.83;1.73;;;7.00;99.90;;;;;;10519068;28;20203;-79
2022/02/01 21:09:04;;;;;;;2.10;2.00;;;7.00;99.90;;;;;;10545173;28;20566;-77
2022/02/01 21:14:08;;;;;;;2.63;2.43;;;7.10;99.90;;;;;;10544770;28;20200;-79
2022/02/01 21:19:10;;;;;;;2.70;2.50;;;7.10;99.90;;;;;;10542351;28;20223;-79
2022/02/01 21:24:14;;;;;;;3.50;3.07;;;7.20;99.90;;;;;;10502611;28;20216;-77
2022/02/01 21:29:17;;;;;;;4.63;2.90;;;7.30;99.90;;;;;;10510008;28;20209;-79
2022/02/01 21:34:19;;;;;;;3.50;3.20;;;7.30;99.90;;;;;;10504386;28;20231;-79
2022/02/01 21:39:21;;;;;;;5.73;5.17;;;7.40;99.90;;;;;;10487716;28;20238;-79
2022/02/01 21:44:25;;;;;;;7.50;6.80;;;7.50;99.90;;;;;;10513066;28;20195;-79
2022/02/01 21:49:27;;;;;;;7.00;5.23;;;7.50;99.90;;;;;;10520271;28;20240;-80
2022/02/01 21:54:30;;;;;;;7.77;5.10;;;7.70;99.90;;;;;;10514148;28;20189;-79
2022/02/01 21:59:33;;;;;;;5.80;5.30;;;7.80;99.90;;;;;;10515204;28;20223;-78
2022/02/01 22:04:36;;;;;;;5.20;4.80;;;7.90;99.90;;;;;;10530101;28;20188;-78
2022/02/01 22:09:38;;;;;;;5.27;4.77;;;8.00;99.90;;;;;;10524705;28;20208;-79
2022/02/01 22:14:42;;;;;;;4.73;3.60;;;8.10;99.90;;;;;;10527063;28;20275;-78
2022/02/01 22:19:44;;;;;;;4.63;4.30;;;8.10;99.90;;;;;;10513127;28;20273;-78
2022/02/01 22:24:46;;;;;;;8.37;5.37;;;8.20;99.90;;;;;;10515739;28;20208;-78
2022/02/01 22:29:52;;;;;;;5.20;4.70;;;8.20;99.90;;;;;;10509949;28;20211;-79
2022/02/01 22:34:54;;;;;;;6.07;5.10;;;8.20;99.90;;;;;;10517113;28;20196;-78
2022/02/01 22:39:58;;;;;;;6.57;4.80;;;8.30;99.90;;;;;;10516649;28;20310;-78
2022/02/01 22:45:02;;;;;;;5.70;5.07;;;8.30;99.90;;;;;;10499022;28;20791;-77
2022/02/01 22:50:07;;;;;;;8.10;4.60;;;8.30;99.90;;;;;;10525750;28;20603;-80
2022/02/01 22:55:10;;;;;;;3.63;3.43;;;8.30;99.90;;;;;;10528355;28;20231;-78
2022/02/01 23:00:15;;;;;;;5.23;3.50;;;8.30;99.90;;;;;;10523671;28;20227;-78
2022/02/01 23:05:17;;;;;;;4.20;3.43;;;8.30;99.90;;;;;;10523382;28;20222;-78
2022/02/01 23:10:25;;;;;;;2.73;2.60;;;8.40;99.90;;;;;;10524799;28;20219;-79
2022/02/01 23:15:48;;;;;;;2.93;2.73;;;8.40;99.90;;;;;;10513661;28;20200;-78
2022/02/01 23:21:18;;;;;;;3.43;3.13;;;8.50;99.90;;;;;;10497360;28;20299;-78
2022/02/01 23:26:20;;;;;;;3.37;3.07;;;8.50;99.90;;;;;;10539262;28;20204;-79
2022/02/01 23:31:39;;;;;;;3.17;2.97;;;8.50;99.90;;;;;;10512692;28;20211;-79
2022/02/01 23:37:25;;;;;;;3.47;3.27;;;8.50;99.90;;;;;;10524850;28;20591;-78
2022/02/01 23:47:48;;;;;;;3.60;3.30;;;8.60;99.90;;;;;;10542678;28;20223;-78
2022/02/01 23:52:53;;;;;;;3.23;3.03;;;8.60;99.90;;;;;;10489697;28;20200;-80
2022/02/01 23:58:04;;;;;;;3.70;3.40;;;8.60;99.90;;;;;;10531311;28;20235;-78
